sensor_id;sensor_type;location;lat;lon;timestamp;temperature;humidity
2839;DHT22;1427;48.510;9.060;2023-11-21T00:00:50;8.20;99.90
2839;DHT22;1427;48.510;9.060;2023-11-21T00:03:18;8.30;99.90
2839;DHT22;1427;48.510;9.060;2023-11-21T00:05:46;8.40;99.90
2839;DHT22;1427;48.510;9.060;2023-11-21T00:08:14;8.40;99.90
2839;DHT22;1427;48.510;9.060;2023-11-21T00:10:43;8.50;99.90
2839;DHT22;1427;48.510;9.060;2023-11-21T00:13:12;8.60;99.90
2839;DHT22;1427;48.510;9.060;2023-11-21T00:15:40;8.50;99.90
2839;DHT22;1427;48.510;9.060;2023-11-21T00:18:08;8.60;99.90
2839;DHT22;1427;48.510;9.060;2023-11-21T00:20:37;8.70;99.90
2839;DHT22;1427;48.510;9.060;2023-11-21T00:23:05;8.60;99.90
2839;DHT22;1427;48.510;9.060;2023-11-21T00:25:33;8.70;99.90
2839;DHT22;1427;48.510;9.060;2023-11-21T00:28:01;8.70;99.90
2839;DHT22;1427;48.510;9.060;2023-11-21T00:30:31;8.80;99.90
2839;DHT22;1427;48.510;9.060;2023-11-21T00:33:00;8.60;99.90
2839;DHT22;1427;48.510;9.060;2023-11-21T00:35:28;8.70;99.90
2839;DHT22;1427;48.510;9.060;2023-11-21T00:37:56;8.70;99.90
2839;DHT22;1427;48.510;9.060;2023-11-21T00:40:25;8.70;99.90
2839;DHT22;1427;48.510;9.060;2023-11-21T00:42:53;8.80;99.90
2839;DHT22;1427;48.510;9.060;2023-11-21T00:45:22;8.70;99.90
2839;DHT22;1427;48.510;9.060;2023-11-21T00:47:52;8.80;99.90
2839;DHT22;1427;48.510;9.060;2023-11-21T00:50:21;8.80;99.90
2839;DHT22;1427;48.510;9.060;2023-11-21T00:52:49;8.60;99.90
2839;DHT22;1427;48.510;9.060;2023-11-21T00:55:18;8.60;99.90
2839;DHT22;1427;48.510;9.060;2023-11-21T00:57:46;8.60;99.90
2839;DHT22;1427;48.510;9.060;2023-11-21T01:00:15;8.60;99.90
2839;DHT22;1427;48.510;9.060;2023-11-21T01:02:44;8.70;99.90
2839;DHT22;1427;48.510;9.060;2023-11-21T01:05:13;8.70;99.90
2839;DHT22;1427;48.510;9.060;2023-11-21T01:07:42;8.70;99.90
2839;DHT22;1427;48.510;9.060;2023-11-21T01:10:10;8.70;99.90
2839;DHT22;1427;48.510;9.060;2023-11-21T01:12:38;9.20;99.90
2839;DHT22;1427;48.510;9.060;2023-11-21T01:15:07;8.60;99.90
2839;DHT22;1427;48.510;9.060;2023-11-21T01:17:36;8.40;99.90
2839;DHT22;1427;48.510;9.060;2023-11-21T01:20:06;8.40;99.90
2839;DHT22;1427;48.510;9.060;2023-11-21T01:22:40;8.40;99.90
2839;DHT22;1427;48.510;9.060;2023-11-21T01:25:08;8.40;99.90
2839;DHT22;1427;48.510;9.060;2023-11-21T01:27:37;8.20;99.90
2839;DHT22;1427;48.510;9.060;2023-11-21T01:30:06;8.30;99.90
2839;DHT22;1427;48.510;9.060;2023-11-21T01:32:37;8.20;99.90
2839;DHT22;1427;48.510;9.060;2023-11-21T01:35:06;8.20;99.90
2839;DHT22;1427;48.510;9.060;2023-11-21T01:37:36;8.20;99.90
2839;DHT22;1427;48.510;9.060;2023-11-21T01:40:07;8.20;99.90
2839;DHT22;1427;48.510;9.060;2023-11-21T01:42:41;8.30;99.90
2839;DHT22;1427;48.510;9.060;2023-11-21T01:45:10;8.30;99.90
2839;DHT22;1427;48.510;9.060;2023-11-21T01:47:40;8.30;99.90
2839;DHT22;1427;48.510;9.060;2023-11-21T01:50:13;8.30;99.90
2839;DHT22;1427;48.510;9.060;2023-11-21T01:52:45;8.30;99.90
2839;DHT22;1427;48.510;9.060;2023-11-21T01:55:16;8.30;99.90
2839;DHT22;1427;48.510;9.060;2023-11-21T01:57:55;8.30;99.90
2839;DHT22;1427;48.510;9.060;2023-11-21T02:00:24;8.30;99.90
2839;DHT22;1427;48.510;9.060;2023-11-21T02:02:55;8.20;99.90
2839;DHT22;1427;48.510;9.060;2023-11-21T02:05:24;8.30;99.90
2839;DHT22;1427;48.510;9.060;2023-11-21T02:07:52;8.40;99.90
2839;DHT22;1427;48.510;9.060;2023-11-21T02:10:22;8.30;99.90
2839;DHT22;1427;48.510;9.060;2023-11-21T02:12:51;8.20;99.90
2839;DHT22;1427;48.510;9.060;2023-11-21T02:15:19;8.20;99.90
2839;DHT22;1427;48.510;9.060;2023-11-21T02:17:49;8.10;99.90
2839;DHT22;1427;48.510;9.060;2023-11-21T02:20:20;8.00;99.90
2839;DHT22;1427;48.510;9.060;2023-11-21T02:22:51;8.00;99.90
2839;DHT22;1427;48.510;9.060;2023-11-21T02:25:22;8.10;99.90
2839;DHT22;1427;48.510;9.060;2023-11-21T02:27:51;8.10;99.90
2839;DHT22;1427;48.510;9.060;2023-11-21T02:30:19;8.10;99.90
2839;DHT22;1427;48.510;9.060;2023-11-21T02:32:48;8.10;99.90
2839;DHT22;1427;48.510;9.060;2023-11-21T02:35:16;8.20;99.90
2839;DHT22;1427;48.510;9.060;2023-11-21T02:37:44;8.30;99.90
2839;DHT22;1427;48.510;9.060;2023-11-21T02:40:14;8.30;99.90
2839;DHT22;1427;48.510;9.060;2023-11-21T02:42:45;8.40;99.90
2839;DHT22;1427;48.510;9.060;2023-11-21T02:45:15;8.50;99.90
2839;DHT22;1427;48.510;9.060;2023-11-21T02:47:44;8.60;99.90
2839;DHT22;1427;48.510;9.060;2023-11-21T02:50:12;8.60;99.90
2839;DHT22;1427;48.510;9.060;2023-11-21T02:52:41;8.80;99.90
2839;DHT22;1427;48.510;9.060;2023-11-21T02:55:09;8.80;99.90
2839;DHT22;1427;48.510;9.060;2023-11-21T02:57:40;8.60;99.90
2839;DHT22;1427;48.510;9.060;2023-11-21T03:00:09;8.40;99.90
2839;DHT22;1427;48.510;9.060;2023-11-21T03:02:40;8.40;99.90
2839;DHT22;1427;48.510;9.060;2023-11-21T03:05:09;8.30;99.90
2839;DHT22;1427;48.510;9.060;2023-11-21T03:07:38;8.20;99.90
2839;DHT22;1427;48.510;9.060;2023-11-21T03:10:08;8.10;99.90
2839;DHT22;1427;48.510;9.060;2023-11-21T03:12:39;8.10;99.90
2839;DHT22;1427;48.510;9.060;2023-11-21T03:15:08;8.10;99.90
2839;DHT22;1427;48.510;9.060;2023-11-21T03:17:36;8.00;99.90
2839;DHT22;1427;48.510;9.060;2023-11-21T03:20:06;8.00;99.90
2839;DHT22;1427;48.510;9.060;2023-11-21T03:22:38;8.10;99.90
2839;DHT22;1427;48.510;9.060;2023-11-21T03:25:07;8.10;99.90
2839;DHT22;1427;48.510;9.060;2023-11-21T03:27:37;8.00;99.90
2839;DHT22;1427;48.510;9.060;2023-11-21T03:30:09;8.10;99.90
2839;DHT22;1427;48.510;9.060;2023-11-21T03:32:38;8.10;99.90
2839;DHT22;1427;48.510;9.060;2023-11-21T03:35:06;8.10;99.90
2839;DHT22;1427;48.510;9.060;2023-11-21T03:37:35;8.10;99.90
2839;DHT22;1427;48.510;9.060;2023-11-21T03:40:06;8.10;99.90
2839;DHT22;1427;48.510;9.060;2023-11-21T03:42:35;8.00;99.90
2839;DHT22;1427;48.510;9.060;2023-11-21T03:45:04;8.00;99.90
2839;DHT22;1427;48.510;9.060;2023-11-21T03:47:33;8.10;99.90
2839;DHT22;1427;48.510;9.060;2023-11-21T03:50:02;8.10;99.90
2839;DHT22;1427;48.510;9.060;2023-11-21T03:52:30;8.20;99.90
2839;DHT22;1427;48.510;9.060;2023-11-21T03:54:58;8.20;99.90
2839;DHT22;1427;48.510;9.060;2023-11-21T03:57:26;8.30;99.90
2839;DHT22;1427;48.510;9.060;2023-11-21T03:59:55;8.30;99.90
2839;DHT22;1427;48.510;9.060;2023-11-21T04:02:23;8.30;99.90
2839;DHT22;1427;48.510;9.060;2023-11-21T04:04:54;8.30;99.90
2839;DHT22;1427;48.510;9.060;2023-11-21T04:07:23;8.40;99.90
2839;DHT22;1427;48.510;9.060;2023-11-21T04:09:51;8.40;99.90
2839;DHT22;1427;48.510;9.060;2023-11-21T04:12:20;8.30;99.90
2839;DHT22;1427;48.510;9.060;2023-11-21T04:14:48;8.30;99.90
2839;DHT22;1427;48.510;9.060;2023-11-21T04:17:18;8.30;99.90
2839;DHT22;1427;48.510;9.060;2023-11-21T04:19:47;8.30;99.90
2839;DHT22;1427;48.510;9.060;2023-11-21T04:22:16;8.40;99.90
2839;DHT22;1427;48.510;9.060;2023-11-21T04:24:44;8.40;99.90
2839;DHT22;1427;48.510;9.060;2023-11-21T04:27:12;8.60;99.90
2839;DHT22;1427;48.510;9.060;2023-11-21T04:29:41;8.50;99.90
2839;DHT22;1427;48.510;9.060;2023-11-21T04:32:09;8.40;99.90
2839;DHT22;1427;48.510;9.060;2023-11-21T04:34:37;8.50;99.90
2839;DHT22;1427;48.510;9.060;2023-11-21T04:37:05;8.60;99.90
2839;DHT22;1427;48.510;9.060;2023-11-21T04:39:35;8.50;99.90
2839;DHT22;1427;48.510;9.060;2023-11-21T04:42:03;8.30;99.90
2839;DHT22;1427;48.510;9.060;2023-11-21T04:44:31;8.30;99.90
2839;DHT22;1427;48.510;9.060;2023-11-21T04:46:59;8.30;99.90
2839;DHT22;1427;48.510;9.060;2023-11-21T04:49:28;8.30;99.90
2839;DHT22;1427;48.510;9.060;2023-11-21T04:51:56;8.30;99.90
2839;DHT22;1427;48.510;9.060;2023-11-21T04:54:25;8.30;99.90
2839;DHT22;1427;48.510;9.060;2023-11-21T04:56:56;8.40;99.90
2839;DHT22;1427;48.510;9.060;2023-11-21T04:59:24;8.50;99.90
2839;DHT22;1427;48.510;9.060;2023-11-21T05:01:54;8.40;99.90
2839;DHT22;1427;48.510;9.060;2023-11-21T05:04:22;8.40;99.90
2839;DHT22;1427;48.510;9.060;2023-11-21T05:06:50;8.60;99.90
2839;DHT22;1427;48.510;9.060;2023-11-21T05:09:18;8.80;99.90
2839;DHT22;1427;48.510;9.060;2023-11-21T05:11:46;8.50;99.90
2839;DHT22;1427;48.510;9.060;2023-11-21T05:14:16;8.60;99.90
2839;DHT22;1427;48.510;9.060;2023-11-21T05:16:45;8.70;99.90
2839;DHT22;1427;48.510;9.060;2023-11-21T05:19:14;8.70;99.90
2839;DHT22;1427;48.510;9.060;2023-11-21T05:21:42;8.30;99.90
2839;DHT22;1427;48.510;9.060;2023-11-21T05:24:10;8.60;99.90
2839;DHT22;1427;48.510;9.060;2023-11-21T05:26:38;8.70;99.90
2839;DHT22;1427;48.510;9.060;2023-11-21T05:29:06;8.70;99.90
2839;DHT22;1427;48.510;9.060;2023-11-21T05:31:36;8.70;99.90
2839;DHT22;1427;48.510;9.060;2023-11-21T05:34:05;8.70;99.90
2839;DHT22;1427;48.510;9.060;2023-11-21T05:36:33;8.80;99.90
2839;DHT22;1427;48.510;9.060;2023-11-21T05:39:01;8.80;99.90
2839;DHT22;1427;48.510;9.060;2023-11-21T05:43:58;8.60;99.90
2839;DHT22;1427;48.510;9.060;2023-11-21T05:46:28;8.70;99.90
2839;DHT22;1427;48.510;9.060;2023-11-21T05:48:57;8.50;99.90
2839;DHT22;1427;48.510;9.060;2023-11-21T05:51:25;8.60;99.90
2839;DHT22;1427;48.510;9.060;2023-11-21T05:53:53;8.70;99.90
2839;DHT22;1427;48.510;9.060;2023-11-21T05:56:21;8.90;99.90
2839;DHT22;1427;48.510;9.060;2023-11-21T05:58:49;8.90;99.90
2839;DHT22;1427;48.510;9.060;2023-11-21T06:01:18;8.80;99.90
2839;DHT22;1427;48.510;9.060;2023-11-21T06:03:46;8.60;99.90
2839;DHT22;1427;48.510;9.060;2023-11-21T06:06:16;8.60;99.90
2839;DHT22;1427;48.510;9.060;2023-11-21T06:08:46;8.70;99.90
2839;DHT22;1427;48.510;9.060;2023-11-21T06:11:14;8.70;99.90
2839;DHT22;1427;48.510;9.060;2023-11-21T06:13:43;8.70;99.90
2839;DHT22;1427;48.510;9.060;2023-11-21T06:16:11;8.60;99.90
2839;DHT22;1427;48.510;9.060;2023-11-21T06:18:43;8.50;99.90
2839;DHT22;1427;48.510;9.060;2023-11-21T06:21:11;8.60;99.90
2839;DHT22;1427;48.510;9.060;2023-11-21T06:23:41;8.80;99.90
2839;DHT22;1427;48.510;9.060;2023-11-21T06:26:10;8.90;99.90
2839;DHT22;1427;48.510;9.060;2023-11-21T06:28:39;8.70;99.90
2839;DHT22;1427;48.510;9.060;2023-11-21T06:31:08;8.60;99.90
2839;DHT22;1427;48.510;9.060;2023-11-21T06:33:37;8.50;99.90
2839;DHT22;1427;48.510;9.060;2023-11-21T06:36:06;8.60;99.90
2839;DHT22;1427;48.510;9.060;2023-11-21T06:38:34;8.50;99.90
2839;DHT22;1427;48.510;9.060;2023-11-21T06:41:04;8.50;99.90
2839;DHT22;1427;48.510;9.060;2023-11-21T06:43:32;8.50;99.90
2839;DHT22;1427;48.510;9.060;2023-11-21T06:46:00;8.40;99.90
2839;DHT22;1427;48.510;9.060;2023-11-21T06:48:29;8.30;99.90
2839;DHT22;1427;48.510;9.060;2023-11-21T06:50:58;8.20;99.90
2839;DHT22;1427;48.510;9.060;2023-11-21T06:53:26;8.20;99.90
2839;DHT22;1427;48.510;9.060;2023-11-21T06:55:54;8.10;99.90
2839;DHT22;1427;48.510;9.060;2023-11-21T06:58:23;8.10;99.90
2839;DHT22;1427;48.510;9.060;2023-11-21T07:00:52;8.10;99.90
2839;DHT22;1427;48.510;9.060;2023-11-21T07:03:22;8.40;99.90
2839;DHT22;1427;48.510;9.060;2023-11-21T07:05:51;8.40;99.90
2839;DHT22;1427;48.510;9.060;2023-11-21T07:08:19;8.50;99.90
2839;DHT22;1427;48.510;9.060;2023-11-21T07:10:47;8.40;99.90
2839;DHT22;1427;48.510;9.060;2023-11-21T07:13:16;8.40;99.90
2839;DHT22;1427;48.510;9.060;2023-11-21T07:15:45;8.50;99.90
2839;DHT22;1427;48.510;9.060;2023-11-21T07:18:13;8.40;99.90
2839;DHT22;1427;48.510;9.060;2023-11-21T07:20:41;8.50;99.90
2839;DHT22;1427;48.510;9.060;2023-11-21T07:23:09;8.60;99.90
2839;DHT22;1427;48.510;9.060;2023-11-21T07:25:38;8.60;99.90
2839;DHT22;1427;48.510;9.060;2023-11-21T07:28:08;8.60;99.90
2839;DHT22;1427;48.510;9.060;2023-11-21T07:30:37;8.60;99.90
2839;DHT22;1427;48.510;9.060;2023-11-21T07:33:07;8.50;99.90
2839;DHT22;1427;48.510;9.060;2023-11-21T07:35:35;8.60;99.90
2839;DHT22;1427;48.510;9.060;2023-11-21T07:38:03;8.50;99.90
2839;DHT22;1427;48.510;9.060;2023-11-21T07:40:31;8.60;99.90
2839;DHT22;1427;48.510;9.060;2023-11-21T07:42:59;9.00;99.90
2839;DHT22;1427;48.510;9.060;2023-11-21T07:45:27;8.50;99.90
2839;DHT22;1427;48.510;9.060;2023-11-21T07:47:56;8.60;99.90
2839;DHT22;1427;48.510;9.060;2023-11-21T07:50:25;8.50;99.90
2839;DHT22;1427;48.510;9.060;2023-11-21T07:52:54;8.60;99.90
2839;DHT22;1427;48.510;9.060;2023-11-21T07:55:22;8.60;99.90
2839;DHT22;1427;48.510;9.060;2023-11-21T07:57:51;8.50;99.90
2839;DHT22;1427;48.510;9.060;2023-11-21T08:00:20;8.50;99.90
2839;DHT22;1427;48.510;9.060;2023-11-21T08:02:48;8.60;99.90
2839;DHT22;1427;48.510;9.060;2023-11-21T08:05:16;8.60;99.90
2839;DHT22;1427;48.510;9.060;2023-11-21T08:07:59;8.80;99.90
2839;DHT22;1427;48.510;9.060;2023-11-21T08:10:27;8.90;99.90
2839;DHT22;1427;48.510;9.060;2023-11-21T08:12:57;8.80;99.90
2839;DHT22;1427;48.510;9.060;2023-11-21T08:15:25;8.80;99.90
2839;DHT22;1427;48.510;9.060;2023-11-21T08:17:53;8.80;99.90
2839;DHT22;1427;48.510;9.060;2023-11-21T08:20:21;8.90;99.90
2839;DHT22;1427;48.510;9.060;2023-11-21T08:22:50;8.80;99.90
2839;DHT22;1427;48.510;9.060;2023-11-21T08:25:20;8.80;99.90
2839;DHT22;1427;48.510;9.060;2023-11-21T08:27:49;8.90;99.90
2839;DHT22;1427;48.510;9.060;2023-11-21T08:30:17;8.80;99.90
2839;DHT22;1427;48.510;9.060;2023-11-21T08:32:46;8.80;99.90
2839;DHT22;1427;48.510;9.060;2023-11-21T08:35:14;8.80;99.90
2839;DHT22;1427;48.510;9.060;2023-11-21T08:37:43;8.80;99.90
2839;DHT22;1427;48.510;9.060;2023-11-21T08:40:14;8.80;99.90
2839;DHT22;1427;48.510;9.060;2023-11-21T08:42:45;8.90;99.90
2839;DHT22;1427;48.510;9.060;2023-11-21T08:45:14;9.00;99.90
2839;DHT22;1427;48.510;9.060;2023-11-21T08:47:44;9.10;99.90
2839;DHT22;1427;48.510;9.060;2023-11-21T08:50:12;8.90;99.90
2839;DHT22;1427;48.510;9.060;2023-11-21T08:52:42;9.00;99.90
2839;DHT22;1427;48.510;9.060;2023-11-21T08:55:10;9.00;99.90
2839;DHT22;1427;48.510;9.060;2023-11-21T08:57:40;9.10;99.90
2839;DHT22;1427;48.510;9.060;2023-11-21T09:00:10;9.00;99.90
2839;DHT22;1427;48.510;9.060;2023-11-21T09:02:39;9.00;99.90
2839;DHT22;1427;48.510;9.060;2023-11-21T09:05:09;9.00;99.90
2839;DHT22;1427;48.510;9.060;2023-11-21T09:07:39;9.00;99.90
2839;DHT22;1427;48.510;9.060;2023-11-21T09:10:08;9.00;99.90
2839;DHT22;1427;48.510;9.060;2023-11-21T09:12:37;9.10;99.90
2839;DHT22;1427;48.510;9.060;2023-11-21T09:15:07;9.10;99.90
2839;DHT22;1427;48.510;9.060;2023-11-21T09:17:38;9.10;99.90
2839;DHT22;1427;48.510;9.060;2023-11-21T09:20:08;9.50;99.90
2839;DHT22;1427;48.510;9.060;2023-11-21T09:22:37;9.30;99.90
2839;DHT22;1427;48.510;9.060;2023-11-21T09:25:06;9.30;99.90
2839;DHT22;1427;48.510;9.060;2023-11-21T09:27:35;9.20;99.90
2839;DHT22;1427;48.510;9.060;2023-11-21T09:30:04;9.20;99.90
2839;DHT22;1427;48.510;9.060;2023-11-21T09:32:38;9.30;99.90
2839;DHT22;1427;48.510;9.060;2023-11-21T09:35:08;9.40;99.90
2839;DHT22;1427;48.510;9.060;2023-11-21T09:37:36;9.70;99.90
2839;DHT22;1427;48.510;9.060;2023-11-21T09:40:10;9.80;99.90
2839;DHT22;1427;48.510;9.060;2023-11-21T09:42:46;9.90;99.90
2839;DHT22;1427;48.510;9.060;2023-11-21T09:45:21;10.00;99.90
2839;DHT22;1427;48.510;9.060;2023-11-21T09:47:52;10.10;99.90
2839;DHT22;1427;48.510;9.060;2023-11-21T09:50:21;10.10;99.90
2839;DHT22;1427;48.510;9.060;2023-11-21T09:52:58;10.00;99.90
2839;DHT22;1427;48.510;9.060;2023-11-21T09:55:28;9.90;99.90
2839;DHT22;1427;48.510;9.060;2023-11-21T09:57:58;9.60;99.90
2839;DHT22;1427;48.510;9.060;2023-11-21T10:00:28;9.90;99.90
2839;DHT22;1427;48.510;9.060;2023-11-21T10:03:00;9.90;99.90
2839;DHT22;1427;48.510;9.060;2023-11-21T10:05:29;9.80;99.90
2839;DHT22;1427;48.510;9.060;2023-11-21T10:08:01;9.80;99.90
2839;DHT22;1427;48.510;9.060;2023-11-21T10:10:32;9.80;99.90
2839;DHT22;1427;48.510;9.060;2023-11-21T10:13:02;9.80;99.90
2839;DHT22;1427;48.510;9.060;2023-11-21T10:15:33;9.70;99.90
2839;DHT22;1427;48.510;9.060;2023-11-21T10:18:04;9.70;99.90
2839;DHT22;1427;48.510;9.060;2023-11-21T10:20:34;9.60;99.90
2839;DHT22;1427;48.510;9.060;2023-11-21T10:23:04;9.40;99.90
2839;DHT22;1427;48.510;9.060;2023-11-21T10:25:34;9.30;99.90
2839;DHT22;1427;48.510;9.060;2023-11-21T10:28:04;9.40;99.90
2839;DHT22;1427;48.510;9.060;2023-11-21T10:30:34;9.40;99.90
2839;DHT22;1427;48.510;9.060;2023-11-21T10:33:06;9.40;99.90
2839;DHT22;1427;48.510;9.060;2023-11-21T10:35:39;9.50;99.90
2839;DHT22;1427;48.510;9.060;2023-11-21T10:38:13;9.60;99.90
2839;DHT22;1427;48.510;9.060;2023-11-21T10:40:42;9.60;99.90
2839;DHT22;1427;48.510;9.060;2023-11-21T10:43:13;9.60;99.90
2839;DHT22;1427;48.510;9.060;2023-11-21T10:45:43;9.60;99.90
2839;DHT22;1427;48.510;9.060;2023-11-21T10:48:14;9.50;99.90
2839;DHT22;1427;48.510;9.060;2023-11-21T10:50:45;9.60;99.90
2839;DHT22;1427;48.510;9.060;2023-11-21T10:53:13;9.70;99.90
2839;DHT22;1427;48.510;9.060;2023-11-21T10:55:42;9.70;99.90
2839;DHT22;1427;48.510;9.060;2023-11-21T10:58:13;9.60;99.90
2839;DHT22;1427;48.510;9.060;2023-11-21T11:00:41;9.50;99.90
2839;DHT22;1427;48.510;9.060;2023-11-21T11:03:14;9.30;99.90
2839;DHT22;1427;48.510;9.060;2023-11-21T11:05:44;9.20;99.90
2839;DHT22;1427;48.510;9.060;2023-11-21T11:08:21;9.10;99.90
2839;DHT22;1427;48.510;9.060;2023-11-21T11:10:54;9.00;99.90
2839;DHT22;1427;48.510;9.060;2023-11-21T11:13:23;8.90;99.90
2839;DHT22;1427;48.510;9.060;2023-11-21T11:15:58;9.10;99.90
2839;DHT22;1427;48.510;9.060;2023-11-21T11:18:29;9.30;99.90
2839;DHT22;1427;48.510;9.060;2023-11-21T11:21:05;9.40;99.90
2839;DHT22;1427;48.510;9.060;2023-11-21T11:23:46;9.40;99.90
2839;DHT22;1427;48.510;9.060;2023-11-21T11:26:26;9.50;99.90
2839;DHT22;1427;48.510;9.060;2023-11-21T11:29:02;9.60;99.90
2839;DHT22;1427;48.510;9.060;2023-11-21T11:31:40;9.40;99.90
2839;DHT22;1427;48.510;9.060;2023-11-21T11:34:29;9.40;99.90
2839;DHT22;1427;48.510;9.060;2023-11-21T11:37:01;9.60;99.90
2839;DHT22;1427;48.510;9.060;2023-11-21T11:39:34;9.60;99.90
2839;DHT22;1427;48.510;9.060;2023-11-21T11:42:05;9.50;99.90
2839;DHT22;1427;48.510;9.060;2023-11-21T11:44:51;9.50;99.90
2839;DHT22;1427;48.510;9.060;2023-11-21T11:47:22;9.50;99.90
2839;DHT22;1427;48.510;9.060;2023-11-21T11:50:01;9.40;99.90
2839;DHT22;1427;48.510;9.060;2023-11-21T11:52:38;9.40;99.90
2839;DHT22;1427;48.510;9.060;2023-11-21T11:55:08;9.30;99.90
2839;DHT22;1427;48.510;9.060;2023-11-21T11:57:38;9.30;99.90
2839;DHT22;1427;48.510;9.060;2023-11-21T12:00:17;9.40;99.90
2839;DHT22;1427;48.510;9.060;2023-11-21T12:02:48;9.40;99.90
2839;DHT22;1427;48.510;9.060;2023-11-21T12:05:20;9.40;99.90
2839;DHT22;1427;48.510;9.060;2023-11-21T12:07:51;9.40;99.90
2839;DHT22;1427;48.510;9.060;2023-11-21T12:10:21;9.60;99.90
2839;DHT22;1427;48.510;9.060;2023-11-21T12:12:53;9.60;99.90
2839;DHT22;1427;48.510;9.060;2023-11-21T12:15:21;9.50;99.90
2839;DHT22;1427;48.510;9.060;2023-11-21T12:17:50;9.60;99.90
2839;DHT22;1427;48.510;9.060;2023-11-21T12:20:21;9.50;99.90
2839;DHT22;1427;48.510;9.060;2023-11-21T12:22:50;9.40;99.90
2839;DHT22;1427;48.510;9.060;2023-11-21T12:25:19;9.50;99.90
2839;DHT22;1427;48.510;9.060;2023-11-21T12:27:49;9.50;99.90
2839;DHT22;1427;48.510;9.060;2023-11-21T12:30:18;9.40;99.90
2839;DHT22;1427;48.510;9.060;2023-11-21T12:32:50;9.50;99.90
2839;DHT22;1427;48.510;9.060;2023-11-21T12:35:22;9.60;99.90
2839;DHT22;1427;48.510;9.060;2023-11-21T12:37:52;9.60;99.90
2839;DHT22;1427;48.510;9.060;2023-11-21T12:40:21;9.70;99.90
2839;DHT22;1427;48.510;9.060;2023-11-21T12:42:52;9.90;99.90
2839;DHT22;1427;48.510;9.060;2023-11-21T12:45:22;10.00;99.90
2839;DHT22;1427;48.510;9.060;2023-11-21T12:47:54;10.10;99.90
2839;DHT22;1427;48.510;9.060;2023-11-21T12:50:26;10.20;99.90
2839;DHT22;1427;48.510;9.060;2023-11-21T12:52:59;10.20;99.90
2839;DHT22;1427;48.510;9.060;2023-11-21T12:55:30;10.10;99.90
2839;DHT22;1427;48.510;9.060;2023-11-21T12:58:01;10.00;99.90
2839;DHT22;1427;48.510;9.060;2023-11-21T13:00:36;10.10;99.90
2839;DHT22;1427;48.510;9.060;2023-11-21T13:03:07;10.00;99.90
2839;DHT22;1427;48.510;9.060;2023-11-21T13:05:38;10.00;99.90
2839;DHT22;1427;48.510;9.060;2023-11-21T13:08:09;9.90;99.90
2839;DHT22;1427;48.510;9.060;2023-11-21T13:10:40;9.80;99.90
2839;DHT22;1427;48.510;9.060;2023-11-21T13:15:39;10.90;99.90
2839;DHT22;1427;48.510;9.060;2023-11-21T13:18:07;9.60;99.90
2839;DHT22;1427;48.510;9.060;2023-11-21T13:20:40;9.60;99.90
2839;DHT22;1427;48.510;9.060;2023-11-21T13:23:10;9.50;99.90
2839;DHT22;1427;48.510;9.060;2023-11-21T13:25:39;9.60;99.90
2839;DHT22;1427;48.510;9.060;2023-11-21T13:28:09;9.80;99.90
2839;DHT22;1427;48.510;9.060;2023-11-21T13:30:38;9.70;99.90
2839;DHT22;1427;48.510;9.060;2023-11-21T13:33:07;9.80;99.90
2839;DHT22;1427;48.510;9.060;2023-11-21T13:35:38;9.70;99.90
2839;DHT22;1427;48.510;9.060;2023-11-21T13:38:09;9.90;99.90
2839;DHT22;1427;48.510;9.060;2023-11-21T13:40:39;9.90;99.90
2839;DHT22;1427;48.510;9.060;2023-11-21T13:43:09;9.90;99.90
2839;DHT22;1427;48.510;9.060;2023-11-21T13:45:38;10.00;99.90
2839;DHT22;1427;48.510;9.060;2023-11-21T13:48:12;9.90;99.90
2839;DHT22;1427;48.510;9.060;2023-11-21T13:50:43;9.80;99.90
2839;DHT22;1427;48.510;9.060;2023-11-21T13:53:15;9.80;99.90
2839;DHT22;1427;48.510;9.060;2023-11-21T13:58:18;9.80;99.90
2839;DHT22;1427;48.510;9.060;2023-11-21T14:00:49;9.70;99.90
2839;DHT22;1427;48.510;9.060;2023-11-21T14:03:23;9.80;99.90
2839;DHT22;1427;48.510;9.060;2023-11-21T14:06:01;9.80;99.90
2839;DHT22;1427;48.510;9.060;2023-11-21T14:08:35;9.80;99.90
2839;DHT22;1427;48.510;9.060;2023-11-21T14:11:03;9.70;99.90
2839;DHT22;1427;48.510;9.060;2023-11-21T14:13:33;9.80;99.90
2839;DHT22;1427;48.510;9.060;2023-11-21T14:16:02;10.00;99.90
2839;DHT22;1427;48.510;9.060;2023-11-21T14:18:33;9.80;99.90
2839;DHT22;1427;48.510;9.060;2023-11-21T14:21:07;9.90;99.90
2839;DHT22;1427;48.510;9.060;2023-11-21T14:23:37;9.80;99.90
2839;DHT22;1427;48.510;9.060;2023-11-21T14:26:05;9.90;99.90
2839;DHT22;1427;48.510;9.060;2023-11-21T14:28:34;9.90;99.90
2839;DHT22;1427;48.510;9.060;2023-11-21T14:31:03;9.80;99.90
2839;DHT22;1427;48.510;9.060;2023-11-21T14:33:31;9.80;99.90
2839;DHT22;1427;48.510;9.060;2023-11-21T14:36:00;9.80;99.90
2839;DHT22;1427;48.510;9.060;2023-11-21T14:38:30;9.80;99.90
2839;DHT22;1427;48.510;9.060;2023-11-21T14:40:58;9.80;99.90
2839;DHT22;1427;48.510;9.060;2023-11-21T14:43:26;9.60;99.90
2839;DHT22;1427;48.510;9.060;2023-11-21T14:45:56;9.80;99.90
2839;DHT22;1427;48.510;9.060;2023-11-21T14:48:26;9.50;99.90
2839;DHT22;1427;48.510;9.060;2023-11-21T14:51:09;9.50;99.90
2839;DHT22;1427;48.510;9.060;2023-11-21T14:53:55;9.50;99.90
2839;DHT22;1427;48.510;9.060;2023-11-21T14:56:27;9.50;99.90
2839;DHT22;1427;48.510;9.060;2023-11-21T14:58:58;9.50;99.90
2839;DHT22;1427;48.510;9.060;2023-11-21T15:01:26;9.40;99.90
2839;DHT22;1427;48.510;9.060;2023-11-21T15:04:09;9.40;99.90
2839;DHT22;1427;48.510;9.060;2023-11-21T15:06:51;9.30;99.90
2839;DHT22;1427;48.510;9.060;2023-11-21T15:09:21;9.30;99.90
2839;DHT22;1427;48.510;9.060;2023-11-21T15:12:03;9.30;99.90
2839;DHT22;1427;48.510;9.060;2023-11-21T15:14:42;9.30;99.90
2839;DHT22;1427;48.510;9.060;2023-11-21T15:17:12;9.20;99.90
2839;DHT22;1427;48.510;9.060;2023-11-21T15:19:46;9.20;99.90
2839;DHT22;1427;48.510;9.060;2023-11-21T15:22:14;9.00;99.90
2839;DHT22;1427;48.510;9.060;2023-11-21T15:24:44;9.10;99.90
2839;DHT22;1427;48.510;9.060;2023-11-21T15:27:14;9.00;99.90
2839;DHT22;1427;48.510;9.060;2023-11-21T15:29:43;9.00;99.90
2839;DHT22;1427;48.510;9.060;2023-11-21T15:32:11;9.10;99.90
2839;DHT22;1427;48.510;9.060;2023-11-21T15:34:40;9.10;99.90
2839;DHT22;1427;48.510;9.060;2023-11-21T15:37:08;9.20;99.90
2839;DHT22;1427;48.510;9.060;2023-11-21T15:39:39;9.20;99.90
2839;DHT22;1427;48.510;9.060;2023-11-21T15:42:08;9.00;99.90
2839;DHT22;1427;48.510;9.060;2023-11-21T15:44:37;9.00;99.90
2839;DHT22;1427;48.510;9.060;2023-11-21T15:47:05;9.00;99.90
2839;DHT22;1427;48.510;9.060;2023-11-21T15:49:36;9.00;99.90
2839;DHT22;1427;48.510;9.060;2023-11-21T15:52:05;9.00;99.90
2839;DHT22;1427;48.510;9.060;2023-11-21T15:54:37;9.00;99.90
2839;DHT22;1427;48.510;9.060;2023-11-21T15:57:08;9.10;99.90
2839;DHT22;1427;48.510;9.060;2023-11-21T15:59:39;9.10;99.90
2839;DHT22;1427;48.510;9.060;2023-11-21T16:02:09;9.10;99.90
2839;DHT22;1427;48.510;9.060;2023-11-21T16:04:39;9.10;99.90
2839;DHT22;1427;48.510;9.060;2023-11-21T16:07:08;9.10;99.90
2839;DHT22;1427;48.510;9.060;2023-11-21T16:09:37;9.10;99.90
2839;DHT22;1427;48.510;9.060;2023-11-21T16:12:09;9.10;99.90
2839;DHT22;1427;48.510;9.060;2023-11-21T16:14:39;9.10;99.90
2839;DHT22;1427;48.510;9.060;2023-11-21T16:17:09;9.10;99.90
2839;DHT22;1427;48.510;9.060;2023-11-21T16:19:38;9.10;99.90
2839;DHT22;1427;48.510;9.060;2023-11-21T16:22:06;9.00;99.90
2839;DHT22;1427;48.510;9.060;2023-11-21T16:24:34;9.00;99.90
2839;DHT22;1427;48.510;9.060;2023-11-21T16:27:04;9.00;99.90
2839;DHT22;1427;48.510;9.060;2023-11-21T16:29:38;9.00;99.90
2839;DHT22;1427;48.510;9.060;2023-11-21T16:32:07;9.00;99.90
2839;DHT22;1427;48.510;9.060;2023-11-21T16:34:37;9.00;99.90
2839;DHT22;1427;48.510;9.060;2023-11-21T16:37:07;9.00;99.90
2839;DHT22;1427;48.510;9.060;2023-11-21T16:39:39;9.00;99.90
2839;DHT22;1427;48.510;9.060;2023-11-21T16:42:08;9.00;99.90